sensor_id;sensor_type;location;lat;lon;timestamp;P1;durP1;ratioP1;P2;durP2;ratioP2
10701;SDS011;5402;50.004;8.246;2023-05-20T00:01:12;2.50;;;2.20;;
10701;SDS011;5402;50.004;8.246;2023-05-20T00:03:39;6.17;;;2.20;;
10701;SDS011;5402;50.004;8.246;2023-05-20T00:06:06;5.37;;;2.40;;
10701;SDS011;5402;50.004;8.246;2023-05-20T00:08:32;2.83;;;1.90;;
10701;SDS011;5402;50.004;8.246;2023-05-20T00:11:00;2.50;;;2.13;;
10701;SDS011;5402;50.004;8.246;2023-05-20T00:13:27;4.20;;;2.30;;
10701;SDS011;5402;50.004;8.246;2023-05-20T00:15:54;5.10;;;2.33;;
10701;SDS011;5402;50.004;8.246;2023-05-20T00:18:21;3.77;;;2.23;;
10701;SDS011;5402;50.004;8.246;2023-05-20T00:20:47;3.97;;;2.20;;
10701;SDS011;5402;50.004;8.246;2023-05-20T00:23:14;2.47;;;2.17;;
10701;SDS011;5402;50.004;8.246;2023-05-20T00:25:43;2.50;;;2.30;;
10701;SDS011;5402;50.004;8.246;2023-05-20T00:28:11;3.37;;;2.20;;
10701;SDS011;5402;50.004;8.246;2023-05-20T00:30:38;2.93;;;2.10;;
10701;SDS011;5402;50.004;8.246;2023-05-20T00:33:05;4.17;;;2.20;;
10701;SDS011;5402;50.004;8.246;2023-05-20T00:35:31;2.63;;;2.00;;
10701;SDS011;5402;50.004;8.246;2023-05-20T00:37:58;3.03;;;2.10;;
10701;SDS011;5402;50.004;8.246;2023-05-20T00:40:25;2.37;;;2.17;;
10701;SDS011;5402;50.004;8.246;2023-05-20T00:42:52;3.57;;;2.10;;
10701;SDS011;5402;50.004;8.246;2023-05-20T00:45:20;2.80;;;2.40;;
10701;SDS011;5402;50.004;8.246;2023-05-20T00:47:47;3.70;;;2.40;;
10701;SDS011;5402;50.004;8.246;2023-05-20T00:50:15;2.50;;;2.10;;
10701;SDS011;5402;50.004;8.246;2023-05-20T00:52:42;3.10;;;2.70;;
10701;SDS011;5402;50.004;8.246;2023-05-20T00:55:11;2.90;;;2.40;;
10701;SDS011;5402;50.004;8.246;2023-05-20T00:57:37;3.40;;;2.20;;
10701;SDS011;5402;50.004;8.246;2023-05-20T01:00:04;3.57;;;2.40;;
10701;SDS011;5402;50.004;8.246;2023-05-20T01:02:35;2.93;;;2.10;;
10701;SDS011;5402;50.004;8.246;2023-05-20T01:05:02;2.70;;;2.10;;
10701;SDS011;5402;50.004;8.246;2023-05-20T01:07:29;2.27;;;2.07;;
10701;SDS011;5402;50.004;8.246;2023-05-20T01:09:56;4.30;;;2.27;;
10701;SDS011;5402;50.004;8.246;2023-05-20T01:12:25;2.93;;;2.30;;
10701;SDS011;5402;50.004;8.246;2023-05-20T01:14:55;5.90;;;2.40;;
10701;SDS011;5402;50.004;8.246;2023-05-20T01:17:25;4.07;;;2.13;;
10701;SDS011;5402;50.004;8.246;2023-05-20T01:19:58;2.77;;;2.23;;
10701;SDS011;5402;50.004;8.246;2023-05-20T01:22:27;2.53;;;2.33;;
10701;SDS011;5402;50.004;8.246;2023-05-20T01:24:54;3.63;;;2.03;;
10701;SDS011;5402;50.004;8.246;2023-05-20T01:27:21;2.90;;;2.60;;
10701;SDS011;5402;50.004;8.246;2023-05-20T01:29:49;3.40;;;2.00;;
10701;SDS011;5402;50.004;8.246;2023-05-20T01:32:18;3.90;;;2.47;;
10701;SDS011;5402;50.004;8.246;2023-05-20T01:34:46;4.10;;;2.60;;
10701;SDS011;5402;50.004;8.246;2023-05-20T01:37:14;3.23;;;2.60;;
10701;SDS011;5402;50.004;8.246;2023-05-20T01:39:44;2.70;;;2.43;;
10701;SDS011;5402;50.004;8.246;2023-05-20T01:42:12;2.57;;;2.37;;
10701;SDS011;5402;50.004;8.246;2023-05-20T01:44:40;2.90;;;2.40;;
10701;SDS011;5402;50.004;8.246;2023-05-20T01:47:07;2.83;;;2.30;;
10701;SDS011;5402;50.004;8.246;2023-05-20T01:49:34;2.47;;;2.27;;
10701;SDS011;5402;50.004;8.246;2023-05-20T01:52:00;3.53;;;2.50;;
10701;SDS011;5402;50.004;8.246;2023-05-20T01:54:27;3.97;;;2.20;;
10701;SDS011;5402;50.004;8.246;2023-05-20T01:56:55;2.37;;;2.13;;
10701;SDS011;5402;50.004;8.246;2023-05-20T01:59:22;3.20;;;2.47;;
10701;SDS011;5402;50.004;8.246;2023-05-20T02:01:49;4.43;;;2.27;;
10701;SDS011;5402;50.004;8.246;2023-05-20T02:04:15;2.53;;;2.20;;
10701;SDS011;5402;50.004;8.246;2023-05-20T02:06:43;3.20;;;2.40;;
10701;SDS011;5402;50.004;8.246;2023-05-20T02:09:09;4.10;;;2.73;;
10701;SDS011;5402;50.004;8.246;2023-05-20T02:11:36;2.93;;;2.23;;
10701;SDS011;5402;50.004;8.246;2023-05-20T02:14:04;2.97;;;2.33;;
10701;SDS011;5402;50.004;8.246;2023-05-20T02:16:31;2.93;;;2.40;;
10701;SDS011;5402;50.004;8.246;2023-05-20T02:18:58;3.17;;;2.27;;
10701;SDS011;5402;50.004;8.246;2023-05-20T02:21:26;3.47;;;2.67;;
10701;SDS011;5402;50.004;8.246;2023-05-20T02:23:52;3.97;;;2.47;;
10701;SDS011;5402;50.004;8.246;2023-05-20T02:26:19;7.57;;;2.77;;
10701;SDS011;5402;50.004;8.246;2023-05-20T02:28:46;3.83;;;2.30;;
10701;SDS011;5402;50.004;8.246;2023-05-20T02:31:16;3.70;;;2.50;;
10701;SDS011;5402;50.004;8.246;2023-05-20T02:33:42;2.87;;;2.57;;
10701;SDS011;5402;50.004;8.246;2023-05-20T02:36:09;4.63;;;2.80;;
10701;SDS011;5402;50.004;8.246;2023-05-20T02:38:36;3.90;;;2.87;;
10701;SDS011;5402;50.004;8.246;2023-05-20T02:41:03;4.67;;;2.47;;
10701;SDS011;5402;50.004;8.246;2023-05-20T02:43:29;2.63;;;2.17;;
10701;SDS011;5402;50.004;8.246;2023-05-20T02:45:56;3.67;;;2.50;;
10701;SDS011;5402;50.004;8.246;2023-05-20T02:48:24;4.43;;;2.43;;
10701;SDS011;5402;50.004;8.246;2023-05-20T02:50:51;3.07;;;2.37;;
10701;SDS011;5402;50.004;8.246;2023-05-20T02:53:18;3.23;;;2.70;;
10701;SDS011;5402;50.004;8.246;2023-05-20T02:55:45;2.93;;;2.63;;
10701;SDS011;5402;50.004;8.246;2023-05-20T02:58:12;2.83;;;2.53;;
10701;SDS011;5402;50.004;8.246;2023-05-20T03:00:39;4.40;;;2.50;;
10701;SDS011;5402;50.004;8.246;2023-05-20T03:03:06;3.27;;;2.47;;
10701;SDS011;5402;50.004;8.246;2023-05-20T03:05:35;3.90;;;2.47;;
10701;SDS011;5402;50.004;8.246;2023-05-20T03:08:02;2.80;;;2.43;;
10701;SDS011;5402;50.004;8.246;2023-05-20T03:10:29;3.40;;;2.23;;
10701;SDS011;5402;50.004;8.246;2023-05-20T03:12:56;7.43;;;2.90;;
10701;SDS011;5402;50.004;8.246;2023-05-20T03:15:22;3.93;;;2.80;;
10701;SDS011;5402;50.004;8.246;2023-05-20T03:17:50;3.17;;;2.70;;
10701;SDS011;5402;50.004;8.246;2023-05-20T03:20:18;3.10;;;2.80;;
10701;SDS011;5402;50.004;8.246;2023-05-20T03:22:46;4.53;;;2.93;;
10701;SDS011;5402;50.004;8.246;2023-05-20T03:25:13;3.00;;;2.63;;
10701;SDS011;5402;50.004;8.246;2023-05-20T03:27:40;3.80;;;2.40;;
10701;SDS011;5402;50.004;8.246;2023-05-20T03:30:08;4.37;;;2.60;;
10701;SDS011;5402;50.004;8.246;2023-05-20T03:32:36;5.03;;;2.60;;
10701;SDS011;5402;50.004;8.246;2023-05-20T03:35:03;4.20;;;2.67;;
10701;SDS011;5402;50.004;8.246;2023-05-20T03:37:31;4.97;;;2.90;;
10701;SDS011;5402;50.004;8.246;2023-05-20T03:39:59;4.93;;;3.00;;
10701;SDS011;5402;50.004;8.246;2023-05-20T03:42:25;4.30;;;2.70;;
10701;SDS011;5402;50.004;8.246;2023-05-20T03:44:52;3.97;;;2.60;;
10701;SDS011;5402;50.004;8.246;2023-05-20T03:47:19;6.30;;;2.60;;
10701;SDS011;5402;50.004;8.246;2023-05-20T03:49:46;3.50;;;2.70;;
10701;SDS011;5402;50.004;8.246;2023-05-20T03:52:12;4.40;;;2.63;;
10701;SDS011;5402;50.004;8.246;2023-05-20T03:54:39;5.23;;;2.60;;
10701;SDS011;5402;50.004;8.246;2023-05-20T03:57:07;6.13;;;2.90;;
10701;SDS011;5402;50.004;8.246;2023-05-20T03:59:34;3.57;;;2.60;;
10701;SDS011;5402;50.004;8.246;2023-05-20T04:02:01;3.70;;;2.80;;
10701;SDS011;5402;50.004;8.246;2023-05-20T04:04:27;5.20;;;2.60;;
10701;SDS011;5402;50.004;8.246;2023-05-20T04:06:54;3.10;;;2.80;;
10701;SDS011;5402;50.004;8.246;2023-05-20T04:09:21;5.27;;;2.80;;
10701;SDS011;5402;50.004;8.246;2023-05-20T04:11:48;4.03;;;2.60;;
10701;SDS011;5402;50.004;8.246;2023-05-20T04:14:16;3.30;;;2.60;;
10701;SDS011;5402;50.004;8.246;2023-05-20T04:16:43;4.63;;;2.80;;
10701;SDS011;5402;50.004;8.246;2023-05-20T04:19:10;3.67;;;2.33;;
10701;SDS011;5402;50.004;8.246;2023-05-20T04:21:38;4.00;;;2.70;;
10701;SDS011;5402;50.004;8.246;2023-05-20T04:24:05;4.07;;;2.60;;
10701;SDS011;5402;50.004;8.246;2023-05-20T04:26:32;3.93;;;2.60;;
10701;SDS011;5402;50.004;8.246;2023-05-20T04:28:59;3.70;;;3.13;;
10701;SDS011;5402;50.004;8.246;2023-05-20T04:31:29;4.00;;;2.60;;
10701;SDS011;5402;50.004;8.246;2023-05-20T04:33:56;3.90;;;2.70;;
10701;SDS011;5402;50.004;8.246;2023-05-20T04:36:24;3.20;;;2.87;;
10701;SDS011;5402;50.004;8.246;2023-05-20T04:38:52;5.10;;;2.97;;
10701;SDS011;5402;50.004;8.246;2023-05-20T04:41:19;4.03;;;3.03;;
10701;SDS011;5402;50.004;8.246;2023-05-20T04:43:46;5.00;;;2.40;;
10701;SDS011;5402;50.004;8.246;2023-05-20T04:46:13;6.20;;;3.33;;
10701;SDS011;5402;50.004;8.246;2023-05-20T04:48:42;3.70;;;2.93;;
10701;SDS011;5402;50.004;8.246;2023-05-20T04:51:08;4.40;;;3.20;;
10701;SDS011;5402;50.004;8.246;2023-05-20T04:53:35;4.67;;;2.90;;
10701;SDS011;5402;50.004;8.246;2023-05-20T04:56:02;4.17;;;2.93;;
10701;SDS011;5402;50.004;8.246;2023-05-20T04:58:29;4.43;;;2.77;;
10701;SDS011;5402;50.004;8.246;2023-05-20T05:00:57;4.33;;;3.10;;
10701;SDS011;5402;50.004;8.246;2023-05-20T05:03:24;3.53;;;2.63;;
10701;SDS011;5402;50.004;8.246;2023-05-20T05:05:55;3.77;;;3.00;;
10701;SDS011;5402;50.004;8.246;2023-05-20T05:08:22;3.97;;;2.70;;
10701;SDS011;5402;50.004;8.246;2023-05-20T05:10:49;3.63;;;2.90;;
10701;SDS011;5402;50.004;8.246;2023-05-20T05:13:15;4.47;;;2.90;;
10701;SDS011;5402;50.004;8.246;2023-05-20T05:15:42;5.43;;;3.07;;
10701;SDS011;5402;50.004;8.246;2023-05-20T05:18:09;4.13;;;2.93;;
10701;SDS011;5402;50.004;8.246;2023-05-20T05:20:35;3.90;;;3.00;;
10701;SDS011;5402;50.004;8.246;2023-05-20T05:23:03;4.17;;;3.00;;
10701;SDS011;5402;50.004;8.246;2023-05-20T05:25:31;4.20;;;3.17;;
10701;SDS011;5402;50.004;8.246;2023-05-20T05:27:58;3.60;;;3.10;;
10701;SDS011;5402;50.004;8.246;2023-05-20T05:30:24;4.77;;;3.20;;
10701;SDS011;5402;50.004;8.246;2023-05-20T05:32:52;3.93;;;3.20;;
10701;SDS011;5402;50.004;8.246;2023-05-20T05:35:18;4.27;;;3.43;;
10701;SDS011;5402;50.004;8.246;2023-05-20T05:37:45;5.00;;;3.50;;
10701;SDS011;5402;50.004;8.246;2023-05-20T05:40:13;4.30;;;3.63;;
10701;SDS011;5402;50.004;8.246;2023-05-20T05:42:40;4.77;;;3.63;;
10701;SDS011;5402;50.004;8.246;2023-05-20T05:45:07;5.47;;;3.60;;
10701;SDS011;5402;50.004;8.246;2023-05-20T05:47:35;4.67;;;3.23;;
10701;SDS011;5402;50.004;8.246;2023-05-20T05:50:01;5.80;;;3.70;;
10701;SDS011;5402;50.004;8.246;2023-05-20T05:52:28;5.77;;;3.67;;
10701;SDS011;5402;50.004;8.246;2023-05-20T05:54:55;4.83;;;3.40;;
10701;SDS011;5402;50.004;8.246;2023-05-20T05:57:23;3.77;;;3.23;;
10701;SDS011;5402;50.004;8.246;2023-05-20T05:59:50;4.07;;;3.10;;
10701;SDS011;5402;50.004;8.246;2023-05-20T06:02:16;4.13;;;3.73;;
10701;SDS011;5402;50.004;8.246;2023-05-20T06:04:43;5.37;;;3.17;;
10701;SDS011;5402;50.004;8.246;2023-05-20T06:07:10;4.90;;;3.50;;
10701;SDS011;5402;50.004;8.246;2023-05-20T06:09:37;5.73;;;3.60;;
10701;SDS011;5402;50.004;8.246;2023-05-20T06:12:03;5.63;;;3.47;;
10701;SDS011;5402;50.004;8.246;2023-05-20T06:14:32;4.97;;;3.17;;
10701;SDS011;5402;50.004;8.246;2023-05-20T06:16:58;4.57;;;3.17;;
10701;SDS011;5402;50.004;8.246;2023-05-20T06:19:26;3.50;;;3.17;;
10701;SDS011;5402;50.004;8.246;2023-05-20T06:21:52;3.93;;;3.47;;
10701;SDS011;5402;50.004;8.246;2023-05-20T06:24:19;4.70;;;3.90;;
10701;SDS011;5402;50.004;8.246;2023-05-20T06:26:46;5.43;;;3.50;;
10701;SDS011;5402;50.004;8.246;2023-05-20T06:29:14;4.23;;;3.50;;
10701;SDS011;5402;50.004;8.246;2023-05-20T06:31:42;4.43;;;3.83;;
10701;SDS011;5402;50.004;8.246;2023-05-20T06:34:09;4.70;;;3.67;;
10701;SDS011;5402;50.004;8.246;2023-05-20T06:36:36;4.63;;;4.07;;
10701;SDS011;5402;50.004;8.246;2023-05-20T06:39:02;5.47;;;4.03;;
10701;SDS011;5402;50.004;8.246;2023-05-20T06:41:30;4.10;;;3.70;;
10701;SDS011;5402;50.004;8.246;2023-05-20T06:43:57;3.90;;;3.47;;
10701;SDS011;5402;50.004;8.246;2023-05-20T06:46:23;4.30;;;3.80;;
10701;SDS011;5402;50.004;8.246;2023-05-20T06:48:54;7.20;;;3.80;;
10701;SDS011;5402;50.004;8.246;2023-05-20T06:51:20;4.80;;;3.77;;
10701;SDS011;5402;50.004;8.246;2023-05-20T06:53:47;4.03;;;3.63;;
10701;SDS011;5402;50.004;8.246;2023-05-20T06:56:14;4.80;;;3.83;;
10701;SDS011;5402;50.004;8.246;2023-05-20T06:58:41;4.37;;;3.97;;
10701;SDS011;5402;50.004;8.246;2023-05-20T07:01:07;5.40;;;3.60;;
10701;SDS011;5402;50.004;8.246;2023-05-20T07:03:34;8.57;;;3.77;;
10701;SDS011;5402;50.004;8.246;2023-05-20T07:06:02;5.90;;;3.80;;
10701;SDS011;5402;50.004;8.246;2023-05-20T07:08:29;5.30;;;3.83;;
10701;SDS011;5402;50.004;8.246;2023-05-20T07:10:56;5.80;;;4.00;;
10701;SDS011;5402;50.004;8.246;2023-05-20T07:13:23;7.13;;;3.87;;
10701;SDS011;5402;50.004;8.246;2023-05-20T07:15:53;6.10;;;4.33;;
10701;SDS011;5402;50.004;8.246;2023-05-20T07:18:20;4.47;;;4.00;;
10701;SDS011;5402;50.004;8.246;2023-05-20T07:20:47;6.67;;;4.27;;
10701;SDS011;5402;50.004;8.246;2023-05-20T07:23:15;4.50;;;4.10;;
10701;SDS011;5402;50.004;8.246;2023-05-20T07:25:46;6.02;;;4.25;;
10701;SDS011;5402;50.004;8.246;2023-05-20T07:28:14;7.60;;;4.43;;
10701;SDS011;5402;50.004;8.246;2023-05-20T07:30:41;5.70;;;4.23;;
10701;SDS011;5402;50.004;8.246;2023-05-20T07:33:12;6.13;;;4.30;;
10701;SDS011;5402;50.004;8.246;2023-05-20T07:35:38;5.50;;;4.30;;
10701;SDS011;5402;50.004;8.246;2023-05-20T07:38:05;5.77;;;4.70;;
10701;SDS011;5402;50.004;8.246;2023-05-20T07:40:33;5.60;;;4.20;;
10701;SDS011;5402;50.004;8.246;2023-05-20T07:43:02;7.90;;;4.50;;
10701;SDS011;5402;50.004;8.246;2023-05-20T07:45:30;10.13;;;4.37;;
10701;SDS011;5402;50.004;8.246;2023-05-20T07:47:56;6.00;;;4.63;;
10701;SDS011;5402;50.004;8.246;2023-05-20T07:50:23;6.60;;;4.50;;
10701;SDS011;5402;50.004;8.246;2023-05-20T07:52:50;5.13;;;4.37;;
10701;SDS011;5402;50.004;8.246;2023-05-20T07:55:16;5.57;;;4.37;;
10701;SDS011;5402;50.004;8.246;2023-05-20T07:57:45;7.90;;;4.87;;
10701;SDS011;5402;50.004;8.246;2023-05-20T08:00:11;6.00;;;4.87;;
10701;SDS011;5402;50.004;8.246;2023-05-20T08:02:38;5.80;;;4.40;;
10701;SDS011;5402;50.004;8.246;2023-05-20T08:05:05;6.50;;;5.13;;
10701;SDS011;5402;50.004;8.246;2023-05-20T08:07:33;6.93;;;4.60;;
10701;SDS011;5402;50.004;8.246;2023-05-20T08:10:00;5.17;;;4.67;;
10701;SDS011;5402;50.004;8.246;2023-05-20T08:12:26;6.17;;;4.57;;
10701;SDS011;5402;50.004;8.246;2023-05-20T08:14:54;6.20;;;5.13;;
10701;SDS011;5402;50.004;8.246;2023-05-20T08:17:21;6.83;;;4.90;;
10701;SDS011;5402;50.004;8.246;2023-05-20T08:19:48;6.87;;;5.00;;
10701;SDS011;5402;50.004;8.246;2023-05-20T08:22:14;5.47;;;4.97;;
10701;SDS011;5402;50.004;8.246;2023-05-20T08:24:41;7.33;;;5.47;;
10701;SDS011;5402;50.004;8.246;2023-05-20T08:27:08;6.97;;;4.90;;
10701;SDS011;5402;50.004;8.246;2023-05-20T08:29:34;6.50;;;5.13;;
10701;SDS011;5402;50.004;8.246;2023-05-20T08:32:03;8.07;;;5.30;;
10701;SDS011;5402;50.004;8.246;2023-05-20T08:34:30;6.63;;;4.77;;
10701;SDS011;5402;50.004;8.246;2023-05-20T08:36:57;6.57;;;5.23;;
10701;SDS011;5402;50.004;8.246;2023-05-20T08:39:24;5.80;;;5.03;;
10701;SDS011;5402;50.004;8.246;2023-05-20T08:41:51;7.03;;;5.37;;
10701;SDS011;5402;50.004;8.246;2023-05-20T08:44:18;7.40;;;5.30;;
10701;SDS011;5402;50.004;8.246;2023-05-20T08:46:46;7.73;;;5.73;;
10701;SDS011;5402;50.004;8.246;2023-05-20T08:49:15;6.93;;;5.23;;
10701;SDS011;5402;50.004;8.246;2023-05-20T08:51:41;6.37;;;5.27;;
10701;SDS011;5402;50.004;8.246;2023-05-20T08:54:10;6.57;;;5.40;;
10701;SDS011;5402;50.004;8.246;2023-05-20T08:56:38;7.03;;;5.60;;
10701;SDS011;5402;50.004;8.246;2023-05-20T08:59:06;5.77;;;5.10;;
10701;SDS011;5402;50.004;8.246;2023-05-20T09:01:34;5.57;;;4.97;;
10701;SDS011;5402;50.004;8.246;2023-05-20T09:04:06;6.73;;;5.10;;
10701;SDS011;5402;50.004;8.246;2023-05-20T09:06:42;5.37;;;4.87;;
10701;SDS011;5402;50.004;8.246;2023-05-20T09:09:09;5.97;;;4.57;;
10701;SDS011;5402;50.004;8.246;2023-05-20T09:11:37;6.20;;;5.03;;
10701;SDS011;5402;50.004;8.246;2023-05-20T09:14:05;6.43;;;5.33;;
10701;SDS011;5402;50.004;8.246;2023-05-20T09:16:32;7.17;;;5.43;;
10701;SDS011;5402;50.004;8.246;2023-05-20T09:18:59;6.63;;;5.80;;
10701;SDS011;5402;50.004;8.246;2023-05-20T09:21:26;6.63;;;5.63;;
10701;SDS011;5402;50.004;8.246;2023-05-20T09:23:54;6.13;;;5.53;;
10701;SDS011;5402;50.004;8.246;2023-05-20T09:26:25;6.68;;;5.47;;
10701;SDS011;5402;50.004;8.246;2023-05-20T09:28:54;7.30;;;5.50;;
10701;SDS011;5402;50.004;8.246;2023-05-20T09:31:24;6.30;;;5.57;;
10701;SDS011;5402;50.004;8.246;2023-05-20T09:33:51;7.05;;;5.78;;
10701;SDS011;5402;50.004;8.246;2023-05-20T09:36:18;6.65;;;6.03;;
10701;SDS011;5402;50.004;8.246;2023-05-20T09:38:47;9.13;;;5.50;;
10701;SDS011;5402;50.004;8.246;2023-05-20T09:41:19;8.07;;;6.38;;
10701;SDS011;5402;50.004;8.246;2023-05-20T09:43:49;6.77;;;5.80;;
10701;SDS011;5402;50.004;8.246;2023-05-20T09:46:18;7.22;;;5.78;;
10701;SDS011;5402;50.004;8.246;2023-05-20T09:48:45;7.32;;;5.80;;
10701;SDS011;5402;50.004;8.246;2023-05-20T09:51:12;6.53;;;5.43;;
10701;SDS011;5402;50.004;8.246;2023-05-20T09:53:40;6.77;;;5.77;;
10701;SDS011;5402;50.004;8.246;2023-05-20T09:56:08;7.27;;;5.33;;
10701;SDS011;5402;50.004;8.246;2023-05-20T09:58:36;6.38;;;5.50;;
10701;SDS011;5402;50.004;8.246;2023-05-20T10:01:04;6.93;;;5.73;;
10701;SDS011;5402;50.004;8.246;2023-05-20T10:03:32;6.78;;;5.63;;
10701;SDS011;5402;50.004;8.246;2023-05-20T10:06:19;8.00;;;6.10;;
10701;SDS011;5402;50.004;8.246;2023-05-20T10:09:10;7.07;;;6.38;;
10701;SDS011;5402;50.004;8.246;2023-05-20T10:11:51;6.97;;;5.73;;
10701;SDS011;5402;50.004;8.246;2023-05-20T10:14:31;6.50;;;5.77;;
10701;SDS011;5402;50.004;8.246;2023-05-20T10:17:09;6.53;;;5.93;;
10701;SDS011;5402;50.004;8.246;2023-05-20T10:19:40;6.10;;;5.50;;
10701;SDS011;5402;50.004;8.246;2023-05-20T10:22:08;7.18;;;5.80;;
10701;SDS011;5402;50.004;8.246;2023-05-20T10:24:37;8.73;;;5.97;;
10701;SDS011;5402;50.004;8.246;2023-05-20T10:27:06;6.20;;;5.37;;
10701;SDS011;5402;50.004;8.246;2023-05-20T10:29:42;7.57;;;5.75;;
10701;SDS011;5402;50.004;8.246;2023-05-20T10:32:11;6.22;;;5.63;;
10701;SDS011;5402;50.004;8.246;2023-05-20T10:34:49;6.80;;;5.95;;
10701;SDS011;5402;50.004;8.246;2023-05-20T10:37:22;6.85;;;5.82;;
10701;SDS011;5402;50.004;8.246;2023-05-20T10:39:51;6.28;;;5.68;;
10701;SDS011;5402;50.004;8.246;2023-05-20T10:42:26;7.50;;;6.25;;
10701;SDS011;5402;50.004;8.246;2023-05-20T10:44:55;6.43;;;5.82;;
10701;SDS011;5402;50.004;8.246;2023-05-20T10:47:22;7.22;;;6.30;;
10701;SDS011;5402;50.004;8.246;2023-05-20T10:49:49;8.05;;;6.72;;
10701;SDS011;5402;50.004;8.246;2023-05-20T10:52:15;7.18;;;6.00;;
10701;SDS011;5402;50.004;8.246;2023-05-20T10:54:43;6.93;;;5.93;;
10701;SDS011;5402;50.004;8.246;2023-05-20T10:57:10;8.83;;;6.80;;
10701;SDS011;5402;50.004;8.246;2023-05-20T10:59:37;10.07;;;6.90;;
10701;SDS011;5402;50.004;8.246;2023-05-20T11:02:05;7.63;;;6.20;;
10701;SDS011;5402;50.004;8.246;2023-05-20T11:04:35;6.97;;;6.30;;
10701;SDS011;5402;50.004;8.246;2023-05-20T11:07:03;8.07;;;6.35;;
10701;SDS011;5402;50.004;8.246;2023-05-20T11:09:29;7.97;;;6.40;;
10701;SDS011;5402;50.004;8.246;2023-05-20T11:11:57;7.53;;;5.82;;
10701;SDS011;5402;50.004;8.246;2023-05-20T11:14:26;6.93;;;6.10;;
10701;SDS011;5402;50.004;8.246;2023-05-20T11:16:55;9.35;;;6.07;;
10701;SDS011;5402;50.004;8.246;2023-05-20T11:19:23;8.80;;;5.90;;
10701;SDS011;5402;50.004;8.246;2023-05-20T11:21:50;8.50;;;6.65;;
10701;SDS011;5402;50.004;8.246;2023-05-20T11:24:21;7.50;;;6.40;;
10701;SDS011;5402;50.004;8.246;2023-05-20T11:26:49;6.95;;;5.70;;
10701;SDS011;5402;50.004;8.246;2023-05-20T11:29:16;7.72;;;5.97;;
10701;SDS011;5402;50.004;8.246;2023-05-20T11:31:46;7.15;;;5.55;;
10701;SDS011;5402;50.004;8.246;2023-05-20T11:34:14;6.00;;;5.40;;
10701;SDS011;5402;50.004;8.246;2023-05-20T11:36:42;6.65;;;5.95;;
10701;SDS011;5402;50.004;8.246;2023-05-20T11:39:09;6.63;;;5.22;;
10701;SDS011;5402;50.004;8.246;2023-05-20T11:41:37;7.18;;;5.50;;
10701;SDS011;5402;50.004;8.246;2023-05-20T11:44:06;5.45;;;4.95;;
10701;SDS011;5402;50.004;8.246;2023-05-20T11:46:39;7.70;;;5.90;;
10701;SDS011;5402;50.004;8.246;2023-05-20T11:49:06;6.80;;;5.72;;
10701;SDS011;5402;50.004;8.246;2023-05-20T11:51:33;6.30;;;5.70;;
10701;SDS011;5402;50.004;8.246;2023-05-20T11:54:01;6.70;;;5.43;;
10701;SDS011;5402;50.004;8.246;2023-05-20T11:56:29;7.43;;;6.57;;
10701;SDS011;5402;50.004;8.246;2023-05-20T11:58:56;6.10;;;5.47;;
10701;SDS011;5402;50.004;8.246;2023-05-20T12:01:24;7.28;;;5.85;;
10701;SDS011;5402;50.004;8.246;2023-05-20T12:03:51;6.43;;;5.63;;
10701;SDS011;5402;50.004;8.246;2023-05-20T12:06:18;6.45;;;5.85;;
10701;SDS011;5402;50.004;8.246;2023-05-20T12:08:45;6.03;;;5.45;;
10701;SDS011;5402;50.004;8.246;2023-05-20T12:11:13;6.40;;;5.30;;
10701;SDS011;5402;50.004;8.246;2023-05-20T12:13:40;5.75;;;5.25;;
10701;SDS011;5402;50.004;8.246;2023-05-20T12:16:07;5.88;;;5.30;;
10701;SDS011;5402;50.004;8.246;2023-05-20T12:18:33;5.90;;;5.40;;
10701;SDS011;5402;50.004;8.246;2023-05-20T12:21:00;6.68;;;5.55;;
10701;SDS011;5402;50.004;8.246;2023-05-20T12:23:27;6.40;;;5.45;;
10701;SDS011;5402;50.004;8.246;2023-05-20T12:25:57;6.00;;;5.45;;
10701;SDS011;5402;50.004;8.246;2023-05-20T12:28:26;5.93;;;5.28;;
10701;SDS011;5402;50.004;8.246;2023-05-20T12:30:53;6.03;;;5.43;;
10701;SDS011;5402;50.004;8.246;2023-05-20T12:33:19;7.78;;;5.80;;
10701;SDS011;5402;50.004;8.246;2023-05-20T12:35:46;5.68;;;5.07;;
10701;SDS011;5402;50.004;8.246;2023-05-20T12:38:13;5.82;;;5.22;;
10701;SDS011;5402;50.004;8.246;2023-05-20T12:40:40;6.95;;;5.72;;
10701;SDS011;5402;50.004;8.246;2023-05-20T12:43:06;7.25;;;5.60;;
10701;SDS011;5402;50.004;8.246;2023-05-20T12:45:35;6.40;;;5.80;;
10701;SDS011;5402;50.004;8.246;2023-05-20T12:48:02;6.53;;;5.35;;
10701;SDS011;5402;50.004;8.246;2023-05-20T12:50:31;7.63;;;5.80;;
10701;SDS011;5402;50.004;8.246;2023-05-20T12:52:57;6.35;;;5.57;;
10701;SDS011;5402;50.004;8.246;2023-05-20T12:55:24;6.00;;;5.40;;
10701;SDS011;5402;50.004;8.246;2023-05-20T12:57:51;6.72;;;5.68;;
10701;SDS011;5402;50.004;8.246;2023-05-20T13:00:20;6.15;;;5.05;;
10701;SDS011;5402;50.004;8.246;2023-05-20T13:02:48;5.82;;;5.22;;
10701;SDS011;5402;50.004;8.246;2023-05-20T13:05:16;6.95;;;5.30;;
10701;SDS011;5402;50.004;8.246;2023-05-20T13:07:42;7.55;;;5.68;;
10701;SDS011;5402;50.004;8.246;2023-05-20T13:10:10;7.15;;;5.65;;
10701;SDS011;5402;50.004;8.246;2023-05-20T13:12:36;6.50;;;5.68;;
10701;SDS011;5402;50.004;8.246;2023-05-20T13:15:04;6.18;;;5.53;;
10701;SDS011;5402;50.004;8.246;2023-05-20T13:17:32;6.22;;;5.45;;
10701;SDS011;5402;50.004;8.246;2023-05-20T13:20:00;8.93;;;6.00;;
10701;SDS011;5402;50.004;8.246;2023-05-20T13:22:27;9.55;;;6.28;;
10701;SDS011;5402;50.004;8.246;2023-05-20T13:24:54;6.03;;;5.38;;
10701;SDS011;5402;50.004;8.246;2023-05-20T13:27:21;8.35;;;6.07;;
10701;SDS011;5402;50.004;8.246;2023-05-20T13:29:47;7.45;;;6.10;;
10701;SDS011;5402;50.004;8.246;2023-05-20T13:32:14;6.55;;;5.88;;
10701;SDS011;5402;50.004;8.246;2023-05-20T13:34:41;7.10;;;6.40;;
10701;SDS011;5402;50.004;8.246;2023-05-20T13:37:09;6.75;;;6.00;;
10701;SDS011;5402;50.004;8.246;2023-05-20T13:39:36;6.55;;;5.80;;
10701;SDS011;5402;50.004;8.246;2023-05-20T13:42:02;7.95;;;6.90;;
10701;SDS011;5402;50.004;8.246;2023-05-20T13:44:29;6.70;;;5.82;;
10701;SDS011;5402;50.004;8.246;2023-05-20T13:46:56;8.15;;;5.75;;
10701;SDS011;5402;50.004;8.246;2023-05-20T13:49:24;8.05;;;6.35;;
10701;SDS011;5402;50.004;8.246;2023-05-20T13:51:51;7.45;;;6.30;;
10701;SDS011;5402;50.004;8.246;2023-05-20T13:54:19;6.67;;;5.90;;
10701;SDS011;5402;50.004;8.246;2023-05-20T13:56:46;7.72;;;6.20;;
10701;SDS011;5402;50.004;8.246;2023-05-20T13:59:12;6.53;;;5.93;;
10701;SDS011;5402;50.004;8.246;2023-05-20T14:01:39;6.50;;;5.90;;
10701;SDS011;5402;50.004;8.246;2023-05-20T14:04:08;6.10;;;5.40;;
10701;SDS011;5402;50.004;8.246;2023-05-20T14:06:35;8.68;;;6.75;;
10701;SDS011;5402;50.004;8.246;2023-05-20T14:09:05;7.55;;;6.47;;
10701;SDS011;5402;50.004;8.246;2023-05-20T14:11:33;8.70;;;6.35;;
10701;SDS011;5402;50.004;8.246;2023-05-20T14:14:00;6.72;;;6.03;;
10701;SDS011;5402;50.004;8.246;2023-05-20T14:16:27;8.75;;;6.30;;
10701;SDS011;5402;50.004;8.246;2023-05-20T14:18:54;7.25;;;6.55;;
10701;SDS011;5402;50.004;8.246;2023-05-20T14:21:20;6.75;;;5.95;;
10701;SDS011;5402;50.004;8.246;2023-05-20T14:23:47;7.75;;;5.97;;
10701;SDS011;5402;50.004;8.246;2023-05-20T14:26:14;6.90;;;6.30;;
10701;SDS011;5402;50.004;8.246;2023-05-20T14:28:42;8.07;;;7.28;;
10701;SDS011;5402;50.004;8.246;2023-05-20T14:31:09;9.57;;;6.60;;
10701;SDS011;5402;50.004;8.246;2023-05-20T14:33:36;7.25;;;6.55;;
10701;SDS011;5402;50.004;8.246;2023-05-20T14:36:03;7.10;;;6.05;;
10701;SDS011;5402;50.004;8.246;2023-05-20T14:38:30;7.13;;;6.43;;
10701;SDS011;5402;50.004;8.246;2023-05-20T14:40:56;7.88;;;6.88;;
10701;SDS011;5402;50.004;8.246;2023-05-20T14:43:23;7.18;;;6.30;;
10701;SDS011;5402;50.004;8.246;2023-05-20T14:45:52;8.00;;;6.45;;
10701;SDS011;5402;50.004;8.246;2023-05-20T14:48:18;8.73;;;7.00;;
10701;SDS011;5402;50.004;8.246;2023-05-20T14:50:45;6.45;;;5.82;;
10701;SDS011;5402;50.004;8.246;2023-05-20T14:53:12;7.70;;;6.13;;
10701;SDS011;5402;50.004;8.246;2023-05-20T14:55:39;7.78;;;6.95;;
10701;SDS011;5402;50.004;8.246;2023-05-20T14:58:05;8.38;;;6.78;;
10701;SDS011;5402;50.004;8.246;2023-05-20T15:00:32;7.13;;;6.43;;
10701;SDS011;5402;50.004;8.246;2023-05-20T15:03:00;6.90;;;6.25;;